Flight Track Log - Related Links

Times and Time Zones

All times are in EST time to prevent confusion due to time zone crossing. See the AAY894 flight status page for this flight to view local times or setup timezone preferences in your user account.

Time Position Orientation Groundspeed Altitude Reporting Facility
EST Latitude Longitude Course Direction KTS MPH feet Rate Location/Type
Sun 08:40:58 AM 27.9167 -82.6833 360° North 141 162 900  Level Tampa TRACON
Sun 08:41:04 AM 27.9333 -82.6833 360° North 142 163 1,400 1,727 Climbing Tampa TRACON
Sun 08:42:04 AM 27.9833 -82.6667 16° North 217 250 2,800 2,081 Climbing Tampa TRACON
Sun 08:43:57 AM 28.1039 -82.6550 North 283 326 7,400 2,428 Climbing Jacksonville Center
Sun 08:44:57 AM 28.1872 -82.6478 North 283 326 9,800 2,600 Climbing Jacksonville Center
Sun 08:45:57 AM 28.2644 -82.6239 15° North 288 331 12,600 2,000 Climbing Jacksonville Center
Sun 08:46:57 AM 28.3542 -82.5906 18° North 301 346 13,800 1,650 Climbing Jacksonville Center
Sun 08:47:57 AM 28.4500 -82.5808 North 326 375 15,900 2,050 Climbing Jacksonville Center
Sun 08:48:57 AM 28.5586 -82.5783 North 358 412 17,900 2,200 Climbing Jacksonville Center
Sun 08:49:57 AM 28.6669 -82.5756 North 371 427 20,300 1,800 Climbing Jacksonville Center
Sun 08:50:57 AM 28.7819 -82.5728 North 371 427 21,500 1,000 Climbing Jacksonville Center
Sun 08:51:57 AM 28.9008 -82.5700 North 397 457 22,300 1,050 Climbing Jacksonville Center
Sun 08:52:57 AM 29.0261 -82.5697 360° North 420 483 23,600 1,400 Climbing Jacksonville Center
Sun 08:53:57 AM 29.1514 -82.5669 North 441 507 25,100 1,550 Climbing Jacksonville Center
Sun 08:54:57 AM 29.2767 -82.5664 360° North 446 513 26,700 1,500 Climbing Jacksonville Center
Sun 08:55:57 AM 29.4039 -82.5661 360° North 446 513 28,100 1,200 Climbing Jacksonville Center
Sun 08:56:57 AM 29.5333 -82.5608 North 451 519 29,100 1,100 Climbing Jacksonville Center
Sun 08:57:57 AM 29.6628 -82.5603 360° North 457 526 30,300 950 Climbing Jacksonville Center
Sun 08:58:57 AM 29.7942 -82.5600 360° North 457 526 31,000 350 Climbing Jacksonville Center
Sun 08:59:57 AM 29.9236 -82.5569 North 457 526 31,000  Level Jacksonville Center
Sun 09:00:57 AM 30.0428 -82.5592 359° North 457 526 31,000  Level Jacksonville Center
Sun 09:01:57 AM 30.1681 -82.5586 360° North 457 526 31,000  Level Jacksonville Center
Sun 09:02:57 AM 30.2975 -82.5581 360° North 457 526 31,000  Level Jacksonville Center
Sun 09:03:57 AM 30.4269 -82.5553 North 457 526 31,000  Level Jacksonville Center
Sun 09:04:57 AM 30.5667 -82.5525 North 457 526 31,000  Level Jacksonville Center
Sun 09:05:57 AM 30.6961 -82.5447 North 457 526 31,000  Level Jacksonville Center
Sun 09:06:57 AM 30.8236 -82.5417 North 462 532 31,000  Level Jacksonville Center
Sun 09:07:57 AM 30.9531 -82.5364 North 457 526 31,000  Level Jacksonville Center
Sun 09:08:57 AM 31.0783 -82.5311 North 457 526 31,000  Level Jacksonville Center
Sun 09:09:57 AM 31.2036 -82.5258 North 452 520 31,000  Level Jacksonville Center
Sun 09:10:57 AM 31.3308 -82.5228 North 452 520 31,000  Level Jacksonville Center
Sun 09:11:57 AM 31.4456 -82.5103 North 452 520 31,000  Level Jacksonville Center
Sun 09:12:57 AM 31.5731 -82.5025 North 452 520 31,000  Level Jacksonville Center
Sun 09:13:57 AM 31.6981 -82.4822 North 457 526 31,000  Level Jacksonville Center
Sun 09:15:27 AM 31.8992 -82.4511 North 460 529 31,000  Level Atlanta Center
Sun 09:16:27 AM 32.0242 -82.4319 North 454 522 31,000  Level Atlanta Center
Sun 09:17:27 AM 32.1492 -82.4125 North 448 516 31,000  Level Atlanta Center
Sun 09:18:27 AM 32.2742 -82.3906 North 448 516 31,000  Level Atlanta Center
Sun 09:19:27 AM 32.3992 -82.3758 North 448 516 31,000  Level Atlanta Center
Sun 09:20:27 AM 32.5219 -82.3539 North 448 516 31,000  Level Atlanta Center
Sun 09:21:27 AM 32.6469 -82.3317 North 448 516 31,000  Level Atlanta Center
Sun 09:22:27 AM 32.7697 -82.3119 North 443 510 31,000  Level Atlanta Center
Sun 09:23:27 AM 32.8864 -82.2950 North 438 504 31,000  Level Atlanta Center
Sun 09:24:27 AM 33.0092 -82.2775 North 438 504 31,000  Level Atlanta Center
Sun 09:25:27 AM 33.1281 -82.2553 North 438 504 31,000  Level Atlanta Center
Sun 09:26:27 AM 33.2486 -82.2356 North 438 504 31,000  Level Atlanta Center
Sun 09:27:27 AM 33.3694 -82.2156 North 443 510 31,000  Level Atlanta Center
Sun 09:28:27 AM 33.4881 -82.1956 North 437 503 31,000  Level Atlanta Center
Sun 09:29:27 AM 33.6069 -82.1756 North 437 503 31,000  Level Atlanta Center
Sun 09:30:27 AM 33.7172 -82.1583 North 432 497 31,000  Level Atlanta Center
Sun 09:31:27 AM 33.8381 -82.1381 North 432 497 31,000  Level Atlanta Center
Sun 09:32:27 AM 33.9544 -82.1181 North 432 497 31,000  Level Atlanta Center
Sun 09:33:27 AM 34.0753 -82.0978 North 432 497 31,000  Level Atlanta Center
Sun 09:34:27 AM 34.1939 -82.0775 North 426 490 31,000  Level Atlanta Center
Sun 09:35:27 AM 34.3125 -82.0569 North 426 490 31,000 250 Level Atlanta Center
Sun 09:36:27 AM 34.4292 -82.0367 North 426 490 31,500 600 Climbing Atlanta Center
Sun 09:37:27 AM 34.5497 -82.0136 North 426 490 32,200 750 Climbing Atlanta Center
Sun 09:38:27 AM 34.6664 -81.9956 North 426 490 33,000 400 Climbing Atlanta Center
Sun 09:39:27 AM 34.7828 -81.9700 10° North 426 490 33,000  Level Atlanta Center
Sun 09:40:27 AM 34.9036 -81.9519 North 426 490 33,000  Level Atlanta Center
Sun 09:41:27 AM 35.0222 -81.9336 North 426 490 33,000  Level Atlanta Center
Sun 09:42:27 AM 35.1383 -81.9003 13° North 426 490 33,000  Level Atlanta Center
Sun 09:43:27 AM 35.2692 -81.8639 13° North 432 497 33,000  Level Atlanta Center
Sun 09:44:27 AM 35.3894 -81.8275 14° North 432 497 33,000  Level Atlanta Center
Sun 09:45:27 AM 35.5100 -81.7936 13° North 437 503 33,000  Level Atlanta Center
Sun 09:46:27 AM 35.6261 -81.7572 14° North 431 496 33,000  Level Atlanta Center
Sun 09:47:27 AM 35.7444 -81.7233 13° North 431 496 33,000  Level Atlanta Center
Sun 09:48:27 AM 35.8647 -81.6892 13° North 431 496 33,000  Level Atlanta Center
Sun 09:49:27 AM 35.9808 -81.6575 12° North 431 496 33,000  Level Atlanta Center
Sun 09:50:27 AM 36.0969 -81.6233 13° North 431 496 33,000  Level Atlanta Center
Sun 09:51:27 AM 36.2131 -81.5889 13° North 431 496 33,000  Level Atlanta Center
Sun 09:52:27 AM 36.3314 -81.5544 13° North 431 496 33,000  Level Atlanta Center
Sun 09:53:27 AM 36.4475 -81.5197 14° North 431 496 33,000  Level Atlanta Center
Sun 09:54:27 AM 36.5614 -81.4878 13° North 426 490 33,000  Level Atlanta Center
Sun 09:55:27 AM 36.6775 -81.4531 13° North 426 490 33,000  Level Atlanta Center
Sun 09:56:27 AM 36.7872 -81.4183 14° North 426 490 33,000  Level Atlanta Center
Sun 09:57:34 AM 36.9203 -81.3819 12° North 425 489 33,000  Level Indianapolis Center
Sun 09:58:36 AM 37.0317 -81.3489 13° North 422 486 33,000  Level Indianapolis Center
Sun 09:59:38 AM 37.1525 -81.3133 13° North 418 481 33,000  Level Indianapolis Center
Sun 10:00:39 AM 37.2672 -81.2797 13° North 421 484 33,000  Level Indianapolis Center
Sun 10:01:41 AM 37.3881 -81.2422 14° North 420 483 33,000  Level Indianapolis Center
Sun 10:02:42 AM 37.4983 -81.2092 13° North 417 480 33,000  Level Indianapolis Center
Sun 10:03:44 AM 37.6089 -81.1747 14° North 418 481 33,000  Level Indianapolis Center
Sun 10:04:46 AM 37.7208 -81.1422 13° North 421 484 33,000  Level Indianapolis Center
Sun 10:05:47 AM 37.8317 -81.1094 13° North 414 476 33,000  Level Indianapolis Center
Sun 10:06:49 AM 37.9439 -81.0781 12° North 412 474 33,000  Level Indianapolis Center
Sun 10:07:50 AM 38.0775 -81.0389 13° North 412 474 33,000  Level Indianapolis Center
Sun 10:08:52 AM 38.1883 -81.0056 13° North 410 472 33,000  Level Indianapolis Center
Sun 10:09:54 AM 38.3003 -80.9728 13° North 412 474 33,000  Level Indianapolis Center
Sun 10:10:55 AM 38.4111 -80.9414 13° North 410 472 33,000  Level Indianapolis Center
Sun 10:12:33 AM 38.6039 -80.8833 13° North 413 475 33,000  Level Cleveland Center
Sun 10:13:34 AM 38.7142 -80.8517 13° North 407 468 33,000  Level Cleveland Center
Sun 10:14:36 AM 38.8244 -80.8197 13° North 407 468 33,000  Level Cleveland Center
Sun 10:15:37 AM 38.9347 -80.7869 13° North 406 467 33,000  Level Cleveland Center
Sun 10:16:38 AM 39.0447 -80.7536 13° North 405 466 33,000  Level Cleveland Center
Sun 10:17:39 AM 39.1567 -80.7206 13° North 407 468 33,000  Level Cleveland Center
Sun 10:18:41 AM 39.2661 -80.6883 13° North 410 472 33,000  Level Cleveland Center
Sun 10:19:42 AM 39.3764 -80.6544 13° North 408 470 33,000  Level Cleveland Center
Sun 10:20:43 AM 39.4864 -80.6219 13° North 407 468 33,000  Level Cleveland Center
Sun 10:21:45 AM 39.6194 -80.5817 13° North 408 470 33,000  Level Cleveland Center
Sun 10:22:46 AM 39.7294 -80.5492 13° North 407 468 33,000  Level Cleveland Center
Sun 10:23:48 AM 39.8392 -80.5156 13° North 407 468 33,000  Level Cleveland Center
Sun 10:24:49 AM 39.9497 -80.4828 13° North 407 468 33,000  Level Cleveland Center
Sun 10:25:50 AM 40.0592 -80.4483 14° North 405 466 33,000  Level Cleveland Center
Sun 10:26:52 AM 40.1711 -80.4153 13° North 409 471 33,000  Level Cleveland Center
Sun 10:27:53 AM 40.2797 -80.3661 19° North 414 476 33,000 -439 Level Cleveland Center
Sun 10:28:55 AM 40.3853 -80.3153 20° North 414 476 32,100 -976 Descending Cleveland Center
Sun 10:29:56 AM 40.5169 -80.2519 20° North 420 483 31,000 -537 Descending Cleveland Center
Sun 10:30:58 AM 40.6264 -80.1989 20° North 420 483 31,000  Level Cleveland Center
Sun 10:31:59 AM 40.7372 -80.1458 20° North 423 487 31,000  Level Cleveland Center
Sun 10:33:01 AM 40.8472 -80.0933 20° North 423 487 31,000  Level Cleveland Center
Sun 10:34:02 AM 40.9456 -80.0436 21° North 421 484 31,000 -488 Level Cleveland Center
Sun 10:35:04 AM 41.0786 -79.9803 20° North 423 487 30,000 -780 Descending Cleveland Center
Sun 10:36:05 AM 41.1775 -79.9311 21° North 424 488 29,400 -732 Descending Cleveland Center
Sun 10:37:07 AM 41.2894 -79.8764 20° North 427 491 28,500 -976 Descending Cleveland Center
Sun 10:38:08 AM 41.4256 -79.8092 20° North 435 501 27,400 -976 Descending Cleveland Center
Sun 10:39:10 AM 41.5406 -79.7525 20° North 441 507 26,500 -878 Descending Cleveland Center
Sun 10:40:11 AM 41.6553 -79.6942 21° North 442 509 25,600 -878 Descending Cleveland Center
Sun 10:41:13 AM 41.7703 -79.6372 20° North 450 518 24,700 -780 Descending Cleveland Center
Sun 10:42:14 AM 41.8875 -79.5761 21° North 442 509 24,000 -976 Descending Cleveland Center
Sun 10:43:16 AM 42.0033 -79.5183 20° North 446 513 22,700 -1,317 Descending Cleveland Center
Sun 10:44:17 AM 42.1178 -79.4592 21° North 442 509 21,300 -1,512 Descending Cleveland Center
Sun 10:45:19 AM 42.2492 -79.3936 20° North 428 493 19,600 -1,561 Descending Cleveland Center
Sun 10:46:20 AM 42.3550 -79.3369 22° Northeast 407 468 18,100 -1,463 Descending Cleveland Center
Sun 10:47:22 AM 42.4597 -79.2847 20° North 402 463 16,600 -1,415 Descending Cleveland Center
Sun 10:48:23 AM 42.5706 -79.2269 21° North 400 460 15,200 -1,415 Descending Cleveland Center
Sun 10:49:25 AM 42.6656 -79.1775 21° North 369 425 13,700 -1,415 Descending Cleveland Center
Sun 10:50:26 AM 42.7536 -79.1319 21° North 342 394 12,300 -829 Descending Cleveland Center
Sun 10:51:28 AM 42.8358 -79.0886 21° North 319 367 12,000 -293 Descending Cleveland Center
Sun 10:52:29 AM 42.9133 -79.0478 21° North 301 346 11,700 -488 Descending Cleveland Center
Sun 10:53:31 AM 42.9578 -78.9606 55° Northeast 308 354 11,000 -950 Descending Cleveland Center
Sun 10:54:10 AM 42.9833 -78.8667 70° East 313 360 10,100 -1,030 Descending Buffalo TRACON
Sun 10:55:10 AM 43.0000 -78.7500 79° East 311 358 9,300 -789 Descending Buffalo TRACON
Sun 10:56:04 AM 43.0167 -78.6667 75° East 299 344 8,600 -918 Descending Buffalo TRACON
Sun 10:56:35 AM 43.0325 -78.6111 69° East 292 336 8,000 -903 Descending Cleveland Center
Sun 10:57:37 AM 43.0958 -78.6053 North 238 274 7,200 -780 Descending Cleveland Center
Sun 10:58:38 AM 43.1083 -78.6808 283° West 217 250 6,400 -1,902 Descending Cleveland Center
Sun 10:59:40 AM 43.1089 -78.7669 271° West 217 250 3,300 -2,293 Descending Cleveland Center
Sun 11:00:41 AM 43.1089 -78.8417 270° West 190 219 1,700 -878 Descending Cleveland Center
Sun 11:01:43 AM 43.1069 -78.8800 266° West 160 184 1,500 -194 Descending Cleveland Center

Login

Don't have an account? Register now (free) for customized features, flight alerts, and more!